sensor_id;sensor_type;location;lat;lon;timestamp;temperature;humidity
51500;DHT22;39101;53.478;6.158;2022-12-05T00:02:10;5.00;99.90
51500;DHT22;39101;53.478;6.158;2022-12-05T00:04:35;5.20;99.90
51500;DHT22;39101;53.478;6.158;2022-12-05T00:07:01;5.00;99.90
51500;DHT22;39101;53.478;6.158;2022-12-05T00:09:27;5.00;99.90
51500;DHT22;39101;53.478;6.158;2022-12-05T00:11:52;5.00;99.90
51500;DHT22;39101;53.478;6.158;2022-12-05T00:14:18;5.20;99.90
51500;DHT22;39101;53.478;6.158;2022-12-05T00:16:44;4.90;99.90
51500;DHT22;39101;53.478;6.158;2022-12-05T00:19:12;5.00;99.90
51500;DHT22;39101;53.478;6.158;2022-12-05T00:21:39;4.90;99.90
51500;DHT22;39101;53.478;6.158;2022-12-05T00:24:06;5.00;99.90
51500;DHT22;39101;53.478;6.158;2022-12-05T00:26:33;5.00;99.90
51500;DHT22;39101;53.478;6.158;2022-12-05T00:28:58;5.20;99.90
51500;DHT22;39101;53.478;6.158;2022-12-05T00:31:26;5.20;99.90
51500;DHT22;39101;53.478;6.158;2022-12-05T00:33:52;4.90;99.90
51500;DHT22;39101;53.478;6.158;2022-12-05T00:36:21;5.00;99.90
51500;DHT22;39101;53.478;6.158;2022-12-05T00:38:47;4.90;99.90
51500;DHT22;39101;53.478;6.158;2022-12-05T00:41:19;5.00;99.90
51500;DHT22;39101;53.478;6.158;2022-12-05T00:43:45;5.10;99.90
51500;DHT22;39101;53.478;6.158;2022-12-05T00:46:24;5.00;99.90
51500;DHT22;39101;53.478;6.158;2022-12-05T00:48:55;5.10;99.90
51500;DHT22;39101;53.478;6.158;2022-12-05T00:51:29;5.40;99.90
51500;DHT22;39101;53.478;6.158;2022-12-05T00:54:00;5.40;99.90
51500;DHT22;39101;53.478;6.158;2022-12-05T00:56:28;5.10;99.90
51500;DHT22;39101;53.478;6.158;2022-12-05T00:58:55;5.20;99.90
51500;DHT22;39101;53.478;6.158;2022-12-05T01:01:28;5.20;99.90
51500;DHT22;39101;53.478;6.158;2022-12-05T01:03:55;5.20;99.90
51500;DHT22;39101;53.478;6.158;2022-12-05T01:06:23;5.30;99.90
51500;DHT22;39101;53.478;6.158;2022-12-05T01:08:49;5.30;99.90
51500;DHT22;39101;53.478;6.158;2022-12-05T01:11:17;5.30;99.90
51500;DHT22;39101;53.478;6.158;2022-12-05T01:13:43;5.70;99.90
51500;DHT22;39101;53.478;6.158;2022-12-05T01:16:25;5.40;99.90
51500;DHT22;39101;53.478;6.158;2022-12-05T01:18:52;5.40;99.90
51500;DHT22;39101;53.478;6.158;2022-12-05T01:21:21;5.40;99.90
51500;DHT22;39101;53.478;6.158;2022-12-05T01:23:48;5.70;99.90
51500;DHT22;39101;53.478;6.158;2022-12-05T01:26:15;5.50;99.90
51500;DHT22;39101;53.478;6.158;2022-12-05T01:28:42;5.60;99.90
51500;DHT22;39101;53.478;6.158;2022-12-05T01:31:31;5.50;99.90
51500;DHT22;39101;53.478;6.158;2022-12-05T01:34:00;5.50;99.90
51500;DHT22;39101;53.478;6.158;2022-12-05T01:36:27;5.60;99.90
51500;DHT22;39101;53.478;6.158;2022-12-05T01:38:53;5.60;99.90
51500;DHT22;39101;53.478;6.158;2022-12-05T01:41:28;5.60;99.90
51500;DHT22;39101;53.478;6.158;2022-12-05T01:46:23;5.60;99.90
51500;DHT22;39101;53.478;6.158;2022-12-05T01:48:50;5.60;99.90
51500;DHT22;39101;53.478;6.158;2022-12-05T01:51:18;5.70;99.90
51500;DHT22;39101;53.478;6.158;2022-12-05T01:53:43;5.70;99.90
51500;DHT22;39101;53.478;6.158;2022-12-05T01:56:10;5.70;99.90
51500;DHT22;39101;53.478;6.158;2022-12-05T01:58:37;5.70;99.90
51500;DHT22;39101;53.478;6.158;2022-12-05T02:01:05;5.70;99.90
51500;DHT22;39101;53.478;6.158;2022-12-05T02:03:31;5.70;99.90
51500;DHT22;39101;53.478;6.158;2022-12-05T02:05:58;5.70;99.90
51500;DHT22;39101;53.478;6.158;2022-12-05T02:08:27;6.70;99.90
51500;DHT22;39101;53.478;6.158;2022-12-05T02:10:55;5.70;99.90
51500;DHT22;39101;53.478;6.158;2022-12-05T02:13:39;5.70;99.90
51500;DHT22;39101;53.478;6.158;2022-12-05T02:16:48;5.60;99.90
51500;DHT22;39101;53.478;6.158;2022-12-05T02:22:31;5.70;99.90
51500;DHT22;39101;53.478;6.158;2022-12-05T02:25:10;5.70;99.90
51500;DHT22;39101;53.478;6.158;2022-12-05T02:33:49;5.70;99.90
51500;DHT22;39101;53.478;6.158;2022-12-05T02:41:52;5.80;99.90
51500;DHT22;39101;53.478;6.158;2022-12-05T02:44:24;5.80;99.90
51500;DHT22;39101;53.478;6.158;2022-12-05T02:46:54;5.90;99.90
51500;DHT22;39101;53.478;6.158;2022-12-05T02:49:24;5.80;99.90
51500;DHT22;39101;53.478;6.158;2022-12-05T02:51:56;5.80;99.90
51500;DHT22;39101;53.478;6.158;2022-12-05T02:54:28;5.90;99.90
51500;DHT22;39101;53.478;6.158;2022-12-05T02:56:57;5.80;99.90
51500;DHT22;39101;53.478;6.158;2022-12-05T02:59:23;5.80;99.90
51500;DHT22;39101;53.478;6.158;2022-12-05T03:01:49;5.80;99.90
51500;DHT22;39101;53.478;6.158;2022-12-05T03:04:16;5.80;99.90
51500;DHT22;39101;53.478;6.158;2022-12-05T03:07:02;5.90;99.90
51500;DHT22;39101;53.478;6.158;2022-12-05T03:12:13;5.80;99.90
51500;DHT22;39101;53.478;6.158;2022-12-05T03:14:45;5.90;99.90
51500;DHT22;39101;53.478;6.158;2022-12-05T03:17:16;5.90;99.90
51500;DHT22;39101;53.478;6.158;2022-12-05T03:20:22;5.80;99.90
51500;DHT22;39101;53.478;6.158;2022-12-05T03:26:05;5.90;99.90
51500;DHT22;39101;53.478;6.158;2022-12-05T03:31:13;5.90;99.90
51500;DHT22;39101;53.478;6.158;2022-12-05T03:33:44;6.00;99.90
51500;DHT22;39101;53.478;6.158;2022-12-05T03:36:18;5.90;99.90
51500;DHT22;39101;53.478;6.158;2022-12-05T03:38:51;6.20;99.90
51500;DHT22;39101;53.478;6.158;2022-12-05T03:41:25;5.90;99.90
51500;DHT22;39101;53.478;6.158;2022-12-05T03:44:00;5.90;99.90
51500;DHT22;39101;53.478;6.158;2022-12-05T03:49:16;5.90;99.90
51500;DHT22;39101;53.478;6.158;2022-12-05T03:54:34;5.90;99.90
51500;DHT22;39101;53.478;6.158;2022-12-05T03:57:10;5.90;99.90
51500;DHT22;39101;53.478;6.158;2022-12-05T03:59:43;5.90;99.90
51500;DHT22;39101;53.478;6.158;2022-12-05T04:02:29;6.00;99.90
51500;DHT22;39101;53.478;6.158;2022-12-05T04:05:13;5.90;99.90
51500;DHT22;39101;53.478;6.158;2022-12-05T04:07:43;5.90;99.90
51500;DHT22;39101;53.478;6.158;2022-12-05T04:10:17;5.90;99.90
51500;DHT22;39101;53.478;6.158;2022-12-05T04:12:45;6.20;99.90
51500;DHT22;39101;53.478;6.158;2022-12-05T04:15:23;6.10;99.90
51500;DHT22;39101;53.478;6.158;2022-12-05T04:17:56;5.90;99.90
51500;DHT22;39101;53.478;6.158;2022-12-05T04:20:33;5.90;99.90
51500;DHT22;39101;53.478;6.158;2022-12-05T04:23:19;5.80;99.90
51500;DHT22;39101;53.478;6.158;2022-12-05T04:25:49;6.00;99.90
51500;DHT22;39101;53.478;6.158;2022-12-05T04:31:05;5.90;99.90
51500;DHT22;39101;53.478;6.158;2022-12-05T04:33:47;5.90;99.90
51500;DHT22;39101;53.478;6.158;2022-12-05T04:36:36;5.90;99.90
51500;DHT22;39101;53.478;6.158;2022-12-05T04:39:07;5.90;99.90
51500;DHT22;39101;53.478;6.158;2022-12-05T04:41:44;5.90;99.90
51500;DHT22;39101;53.478;6.158;2022-12-05T04:44:15;5.80;99.90
51500;DHT22;39101;53.478;6.158;2022-12-05T04:46:43;6.00;99.90
51500;DHT22;39101;53.478;6.158;2022-12-05T04:49:15;5.90;99.90
51500;DHT22;39101;53.478;6.158;2022-12-05T04:51:42;5.80;99.90
51500;DHT22;39101;53.478;6.158;2022-12-05T04:54:30;6.00;99.90
51500;DHT22;39101;53.478;6.158;2022-12-05T04:57:06;5.90;99.90
51500;DHT22;39101;53.478;6.158;2022-12-05T04:59:34;5.90;99.90
51500;DHT22;39101;53.478;6.158;2022-12-05T05:02:08;5.90;99.90
51500;DHT22;39101;53.478;6.158;2022-12-05T05:04:41;6.00;99.90
51500;DHT22;39101;53.478;6.158;2022-12-05T05:07:10;6.20;99.90
51500;DHT22;39101;53.478;6.158;2022-12-05T05:09:37;6.00;99.90
51500;DHT22;39101;53.478;6.158;2022-12-05T05:12:03;6.00;99.90
51500;DHT22;39101;53.478;6.158;2022-12-05T05:14:29;5.90;99.90
51500;DHT22;39101;53.478;6.158;2022-12-05T05:16:55;6.20;99.90
51500;DHT22;39101;53.478;6.158;2022-12-05T05:19:21;6.00;99.90
51500;DHT22;39101;53.478;6.158;2022-12-05T05:21:47;6.00;99.90
51500;DHT22;39101;53.478;6.158;2022-12-05T05:24:14;6.00;99.90
51500;DHT22;39101;53.478;6.158;2022-12-05T05:26:42;5.90;99.90
51500;DHT22;39101;53.478;6.158;2022-12-05T05:29:08;5.90;99.90
51500;DHT22;39101;53.478;6.158;2022-12-05T05:31:35;6.00;99.90
51500;DHT22;39101;53.478;6.158;2022-12-05T05:34:01;6.10;99.90
51500;DHT22;39101;53.478;6.158;2022-12-05T05:36:27;6.00;99.90
51500;DHT22;39101;53.478;6.158;2022-12-05T05:38:55;5.90;99.90
51500;DHT22;39101;53.478;6.158;2022-12-05T05:41:22;6.00;99.90
51500;DHT22;39101;53.478;6.158;2022-12-05T05:43:49;5.90;99.90
51500;DHT22;39101;53.478;6.158;2022-12-05T05:46:16;5.90;99.90
51500;DHT22;39101;53.478;6.158;2022-12-05T05:48:42;5.80;99.90
51500;DHT22;39101;53.478;6.158;2022-12-05T05:51:10;5.90;99.90
51500;DHT22;39101;53.478;6.158;2022-12-05T05:53:36;5.90;99.90
51500;DHT22;39101;53.478;6.158;2022-12-05T05:56:08;5.90;99.90
51500;DHT22;39101;53.478;6.158;2022-12-05T05:58:34;5.80;99.90
51500;DHT22;39101;53.478;6.158;2022-12-05T06:01:11;5.90;99.90
51500;DHT22;39101;53.478;6.158;2022-12-05T06:03:38;5.90;99.90
51500;DHT22;39101;53.478;6.158;2022-12-05T06:06:06;5.80;99.90
51500;DHT22;39101;53.478;6.158;2022-12-05T06:08:34;5.90;99.90
51500;DHT22;39101;53.478;6.158;2022-12-05T06:11:07;6.20;99.90
51500;DHT22;39101;53.478;6.158;2022-12-05T06:13:33;5.90;99.90
51500;DHT22;39101;53.478;6.158;2022-12-05T06:15:59;6.00;99.90
51500;DHT22;39101;53.478;6.158;2022-12-05T06:18:25;6.00;99.90
51500;DHT22;39101;53.478;6.158;2022-12-05T06:20:55;5.90;99.90
51500;DHT22;39101;53.478;6.158;2022-12-05T06:23:21;6.00;99.90
51500;DHT22;39101;53.478;6.158;2022-12-05T06:25:48;6.00;99.90
51500;DHT22;39101;53.478;6.158;2022-12-05T06:28:15;6.00;99.90
51500;DHT22;39101;53.478;6.158;2022-12-05T06:30:41;6.20;99.90
51500;DHT22;39101;53.478;6.158;2022-12-05T06:33:06;6.00;99.90
51500;DHT22;39101;53.478;6.158;2022-12-05T06:35:32;5.90;99.90
51500;DHT22;39101;53.478;6.158;2022-12-05T06:37:58;6.00;99.90
51500;DHT22;39101;53.478;6.158;2022-12-05T06:40:24;6.10;99.90
51500;DHT22;39101;53.478;6.158;2022-12-05T06:42:49;6.00;99.90
51500;DHT22;39101;53.478;6.158;2022-12-05T06:45:15;6.00;99.90
51500;DHT22;39101;53.478;6.158;2022-12-05T06:47:41;5.90;99.90
51500;DHT22;39101;53.478;6.158;2022-12-05T06:50:07;6.00;99.90
51500;DHT22;39101;53.478;6.158;2022-12-05T06:52:33;6.00;99.90
51500;DHT22;39101;53.478;6.158;2022-12-05T06:54:58;6.10;99.90
51500;DHT22;39101;53.478;6.158;2022-12-05T06:57:24;6.10;99.90
51500;DHT22;39101;53.478;6.158;2022-12-05T06:59:52;6.10;99.90
51500;DHT22;39101;53.478;6.158;2022-12-05T07:02:37;6.00;99.90
51500;DHT22;39101;53.478;6.158;2022-12-05T07:05:03;6.00;99.90
51500;DHT22;39101;53.478;6.158;2022-12-05T07:07:29;6.00;99.90
51500;DHT22;39101;53.478;6.158;2022-12-05T07:09:54;6.10;99.90
51500;DHT22;39101;53.478;6.158;2022-12-05T07:12:20;6.00;99.90
51500;DHT22;39101;53.478;6.158;2022-12-05T07:14:46;6.10;99.90
51500;DHT22;39101;53.478;6.158;2022-12-05T07:17:12;6.00;99.90
51500;DHT22;39101;53.478;6.158;2022-12-05T07:19:37;6.40;99.90
51500;DHT22;39101;53.478;6.158;2022-12-05T07:22:03;6.10;99.90
51500;DHT22;39101;53.478;6.158;2022-12-05T07:24:29;6.00;99.90
51500;DHT22;39101;53.478;6.158;2022-12-05T07:26:55;6.10;99.90
51500;DHT22;39101;53.478;6.158;2022-12-05T07:29:21;6.10;99.90
51500;DHT22;39101;53.478;6.158;2022-12-05T07:31:46;6.10;99.90
51500;DHT22;39101;53.478;6.158;2022-12-05T07:34:12;6.10;99.90
51500;DHT22;39101;53.478;6.158;2022-12-05T07:36:38;6.10;99.90
51500;DHT22;39101;53.478;6.158;2022-12-05T07:39:03;6.20;99.90
51500;DHT22;39101;53.478;6.158;2022-12-05T07:41:31;6.30;99.90
51500;DHT22;39101;53.478;6.158;2022-12-05T07:43:58;6.00;99.90
51500;DHT22;39101;53.478;6.158;2022-12-05T07:46:25;6.30;99.90
51500;DHT22;39101;53.478;6.158;2022-12-05T07:48:52;6.00;99.90
51500;DHT22;39101;53.478;6.158;2022-12-05T07:51:18;6.00;99.90
51500;DHT22;39101;53.478;6.158;2022-12-05T07:53:45;6.00;99.90
51500;DHT22;39101;53.478;6.158;2022-12-05T07:56:12;6.10;99.90
51500;DHT22;39101;53.478;6.158;2022-12-05T07:58:41;6.10;99.90
51500;DHT22;39101;53.478;6.158;2022-12-05T08:01:17;6.20;99.90
51500;DHT22;39101;53.478;6.158;2022-12-05T08:03:44;6.10;99.90
51500;DHT22;39101;53.478;6.158;2022-12-05T08:06:15;6.10;99.90
51500;DHT22;39101;53.478;6.158;2022-12-05T08:08:41;6.10;99.90
51500;DHT22;39101;53.478;6.158;2022-12-05T08:11:11;6.20;99.90
51500;DHT22;39101;53.478;6.158;2022-12-05T08:13:37;6.10;99.90
51500;DHT22;39101;53.478;6.158;2022-12-05T08:16:05;6.40;99.90
51500;DHT22;39101;53.478;6.158;2022-12-05T08:18:31;6.20;99.90
51500;DHT22;39101;53.478;6.158;2022-12-05T08:21:05;6.30;99.90
51500;DHT22;39101;53.478;6.158;2022-12-05T08:23:32;6.20;99.90
51500;DHT22;39101;53.478;6.158;2022-12-05T08:26:10;6.40;99.90
51500;DHT22;39101;53.478;6.158;2022-12-05T08:28:36;6.20;99.90
51500;DHT22;39101;53.478;6.158;2022-12-05T08:33:34;6.20;99.90
51500;DHT22;39101;53.478;6.158;2022-12-05T08:36:02;6.20;99.90
51500;DHT22;39101;53.478;6.158;2022-12-05T08:38:28;6.30;99.90
51500;DHT22;39101;53.478;6.158;2022-12-05T08:40:53;6.20;99.90
51500;DHT22;39101;53.478;6.158;2022-12-05T08:43:19;6.30;99.90
51500;DHT22;39101;53.478;6.158;2022-12-05T08:45:49;6.30;99.90
51500;DHT22;39101;53.478;6.158;2022-12-05T08:48:15;6.20;99.90
51500;DHT22;39101;53.478;6.158;2022-12-05T08:50:41;6.30;99.90
51500;DHT22;39101;53.478;6.158;2022-12-05T08:53:07;6.20;99.90
51500;DHT22;39101;53.478;6.158;2022-12-05T08:55:36;6.20;99.90
51500;DHT22;39101;53.478;6.158;2022-12-05T08:58:02;6.20;99.90
51500;DHT22;39101;53.478;6.158;2022-12-05T09:00:27;6.30;99.90
51500;DHT22;39101;53.478;6.158;2022-12-05T09:02:53;6.30;99.90
51500;DHT22;39101;53.478;6.158;2022-12-05T09:05:18;6.20;99.90
51500;DHT22;39101;53.478;6.158;2022-12-05T09:07:44;6.20;99.90
51500;DHT22;39101;53.478;6.158;2022-12-05T09:10:10;6.30;99.90
51500;DHT22;39101;53.478;6.158;2022-12-05T09:12:36;6.20;99.90
51500;DHT22;39101;53.478;6.158;2022-12-05T09:15:04;6.20;99.90
51500;DHT22;39101;53.478;6.158;2022-12-05T09:17:30;6.30;99.90
51500;DHT22;39101;53.478;6.158;2022-12-05T09:19:55;6.30;99.90
51500;DHT22;39101;53.478;6.158;2022-12-05T09:22:21;6.40;99.90
51500;DHT22;39101;53.478;6.158;2022-12-05T09:24:47;6.30;99.90
51500;DHT22;39101;53.478;6.158;2022-12-05T09:27:13;6.30;99.90
51500;DHT22;39101;53.478;6.158;2022-12-05T09:29:39;6.30;99.90
51500;DHT22;39101;53.478;6.158;2022-12-05T09:32:05;6.30;99.90
51500;DHT22;39101;53.478;6.158;2022-12-05T09:34:31;6.30;99.90
51500;DHT22;39101;53.478;6.158;2022-12-05T09:36:57;6.50;99.90
51500;DHT22;39101;53.478;6.158;2022-12-05T09:39:23;6.40;99.90
51500;DHT22;39101;53.478;6.158;2022-12-05T09:49:50;6.30;99.90
51500;DHT22;39101;53.478;6.158;2022-12-05T09:52:30;6.50;99.90
51500;DHT22;39101;53.478;6.158;2022-12-05T09:55:02;6.40;99.90
51500;DHT22;39101;53.478;6.158;2022-12-05T09:57:37;6.30;99.90
51500;DHT22;39101;53.478;6.158;2022-12-05T10:00:05;6.40;99.90
51500;DHT22;39101;53.478;6.158;2022-12-05T10:02:56;6.30;99.90
51500;DHT22;39101;53.478;6.158;2022-12-05T10:05:42;6.30;99.90
51500;DHT22;39101;53.478;6.158;2022-12-05T10:08:24;6.40;99.90
51500;DHT22;39101;53.478;6.158;2022-12-05T10:11:02;6.30;99.90
51500;DHT22;39101;53.478;6.158;2022-12-05T10:13:57;6.40;99.90
51500;DHT22;39101;53.478;6.158;2022-12-05T10:16:32;6.40;99.90
51500;DHT22;39101;53.478;6.158;2022-12-05T10:19:04;6.40;99.90
51500;DHT22;39101;53.478;6.158;2022-12-05T10:21:45;6.40;99.90
51500;DHT22;39101;53.478;6.158;2022-12-05T10:24:20;6.40;99.90
51500;DHT22;39101;53.478;6.158;2022-12-05T10:26:52;6.40;99.90
51500;DHT22;39101;53.478;6.158;2022-12-05T10:29:42;6.40;99.90
51500;DHT22;39101;53.478;6.158;2022-12-05T10:32:31;6.40;99.90
51500;DHT22;39101;53.478;6.158;2022-12-05T10:35:20;6.40;99.90
51500;DHT22;39101;53.478;6.158;2022-12-05T10:37:55;6.40;99.90
51500;DHT22;39101;53.478;6.158;2022-12-05T10:40:22;6.50;99.90
51500;DHT22;39101;53.478;6.158;2022-12-05T10:42:49;6.70;99.90
51500;DHT22;39101;53.478;6.158;2022-12-05T10:45:19;6.60;99.90
51500;DHT22;39101;53.478;6.158;2022-12-05T10:47:46;6.60;99.90
51500;DHT22;39101;53.478;6.158;2022-12-05T10:52:51;6.50;99.90
51500;DHT22;39101;53.478;6.158;2022-12-05T10:55:18;6.50;99.90
51500;DHT22;39101;53.478;6.158;2022-12-05T10:57:50;6.50;99.90
51500;DHT22;39101;53.478;6.158;2022-12-05T11:00:20;6.60;99.90
51500;DHT22;39101;53.478;6.158;2022-12-05T11:02:47;6.60;99.90
51500;DHT22;39101;53.478;6.158;2022-12-05T11:05:13;6.60;99.90
51500;DHT22;39101;53.478;6.158;2022-12-05T11:10:24;6.80;99.90
51500;DHT22;39101;53.478;6.158;2022-12-05T11:12:51;6.60;99.90
51500;DHT22;39101;53.478;6.158;2022-12-05T11:15:21;6.50;99.90
51500;DHT22;39101;53.478;6.158;2022-12-05T11:17:50;6.70;99.90
51500;DHT22;39101;53.478;6.158;2022-12-05T11:22:44;6.60;99.90
51500;DHT22;39101;53.478;6.158;2022-12-05T11:25:35;6.50;99.90
51500;DHT22;39101;53.478;6.158;2022-12-05T11:31:02;6.60;99.90
51500;DHT22;39101;53.478;6.158;2022-12-05T11:33:30;6.60;99.90
51500;DHT22;39101;53.478;6.158;2022-12-05T11:38:58;6.50;99.90
51500;DHT22;39101;53.478;6.158;2022-12-05T11:50:06;6.40;99.90
51500;DHT22;39101;53.478;6.158;2022-12-05T12:04:12;6.40;99.90
51500;DHT22;39101;53.478;6.158;2022-12-05T12:09:52;6.20;99.90
51500;DHT22;39101;53.478;6.158;2022-12-05T12:15:12;6.20;99.90
51500;DHT22;39101;53.478;6.158;2022-12-05T12:18:10;6.20;99.90
51500;DHT22;39101;53.478;6.158;2022-12-05T12:23:58;6.10;99.90
51500;DHT22;39101;53.478;6.158;2022-12-05T12:26:38;6.20;99.90
51500;DHT22;39101;53.478;6.158;2022-12-05T12:29:31;6.20;99.90
51500;DHT22;39101;53.478;6.158;2022-12-05T12:37:53;6.00;99.90
51500;DHT22;39101;53.478;6.158;2022-12-05T12:40:52;6.10;99.90
51500;DHT22;39101;53.478;6.158;2022-12-05T12:44:14;6.10;99.90
51500;DHT22;39101;53.478;6.158;2022-12-05T12:51:53;6.00;99.90
51500;DHT22;39101;53.478;6.158;2022-12-05T12:54:40;6.10;99.90
51500;DHT22;39101;53.478;6.158;2022-12-05T12:57:19;6.00;99.90
51500;DHT22;39101;53.478;6.158;2022-12-05T13:05:32;5.90;99.90
51500;DHT22;39101;53.478;6.158;2022-12-05T13:08:04;6.00;99.90
51500;DHT22;39101;53.478;6.158;2022-12-05T13:10:45;6.00;99.90
51500;DHT22;39101;53.478;6.158;2022-12-05T13:13:15;5.90;99.90
51500;DHT22;39101;53.478;6.158;2022-12-05T13:15:51;5.90;99.90
51500;DHT22;39101;53.478;6.158;2022-12-05T13:18:21;6.00;99.90
51500;DHT22;39101;53.478;6.158;2022-12-05T13:20:53;5.90;99.90
51500;DHT22;39101;53.478;6.158;2022-12-05T13:23:44;5.90;99.90
51500;DHT22;39101;53.478;6.158;2022-12-05T13:26:11;6.00;99.90
51500;DHT22;39101;53.478;6.158;2022-12-05T13:28:46;5.90;99.90
51500;DHT22;39101;53.478;6.158;2022-12-05T13:31:13;6.00;99.90
51500;DHT22;39101;53.478;6.158;2022-12-05T13:33:49;6.00;99.90
51500;DHT22;39101;53.478;6.158;2022-12-05T13:36:23;6.20;99.90
51500;DHT22;39101;53.478;6.158;2022-12-05T13:41:58;5.90;99.90
51500;DHT22;39101;53.478;6.158;2022-12-05T13:44:52;5.80;99.90
51500;DHT22;39101;53.478;6.158;2022-12-05T13:52:52;5.80;99.90
51500;DHT22;39101;53.478;6.158;2022-12-05T13:55:26;5.80;99.90
51500;DHT22;39101;53.478;6.158;2022-12-05T13:57:55;5.80;99.90
51500;DHT22;39101;53.478;6.158;2022-12-05T14:02:55;5.80;99.90
51500;DHT22;39101;53.478;6.158;2022-12-05T14:07:48;5.80;99.90
51500;DHT22;39101;53.478;6.158;2022-12-05T14:15:43;5.80;99.90
51500;DHT22;39101;53.478;6.158;2022-12-05T14:26:16;5.70;99.90
51500;DHT22;39101;53.478;6.158;2022-12-05T14:39:42;5.70;99.90
51500;DHT22;39101;53.478;6.158;2022-12-05T14:42:35;5.80;99.90
51500;DHT22;39101;53.478;6.158;2022-12-05T14:47:53;5.70;99.90
51500;DHT22;39101;53.478;6.158;2022-12-05T14:55:47;5.80;99.90
51500;DHT22;39101;53.478;6.158;2022-12-05T14:58:41;5.70;99.90
51500;DHT22;39101;53.478;6.158;2022-12-05T15:01:16;5.70;99.90
51500;DHT22;39101;53.478;6.158;2022-12-05T15:06:32;5.80;99.90
51500;DHT22;39101;53.478;6.158;2022-12-05T15:09:03;6.00;99.90
51500;DHT22;39101;53.478;6.158;2022-12-05T15:11:30;5.80;99.90
51500;DHT22;39101;53.478;6.158;2022-12-05T15:14:04;5.90;99.90
51500;DHT22;39101;53.478;6.158;2022-12-05T15:16:36;5.70;99.90
51500;DHT22;39101;53.478;6.158;2022-12-05T15:19:11;6.00;99.90
51500;DHT22;39101;53.478;6.158;2022-12-05T15:21:43;5.80;99.90
51500;DHT22;39101;53.478;6.158;2022-12-05T15:24:15;5.70;99.90
51500;DHT22;39101;53.478;6.158;2022-12-05T15:26:56;5.80;99.90
51500;DHT22;39101;53.478;6.158;2022-12-05T15:34:20;5.70;99.90
51500;DHT22;39101;53.478;6.158;2022-12-05T15:39:28;5.70;99.90
51500;DHT22;39101;53.478;6.158;2022-12-05T15:41:56;5.70;99.90
51500;DHT22;39101;53.478;6.158;2022-12-05T15:44:26;5.70;99.90
51500;DHT22;39101;53.478;6.158;2022-12-05T15:46:54;5.70;99.90
51500;DHT22;39101;53.478;6.158;2022-12-05T15:51:49;5.70;99.90
51500;DHT22;39101;53.478;6.158;2022-12-05T15:54:19;5.70;99.90
51500;DHT22;39101;53.478;6.158;2022-12-05T15:56:51;6.20;99.90
51500;DHT22;39101;53.478;6.158;2022-12-05T15:59:37;5.70;99.90
51500;DHT22;39101;53.478;6.158;2022-12-05T16:04:58;5.60;99.90
51500;DHT22;39101;53.478;6.158;2022-12-05T16:07:26;5.60;99.90
51500;DHT22;39101;53.478;6.158;2022-12-05T16:09:56;5.60;99.90
51500;DHT22;39101;53.478;6.158;2022-12-05T16:15:01;5.70;99.90
51500;DHT22;39101;53.478;6.158;2022-12-05T16:17:29;5.70;99.90
51500;DHT22;39101;53.478;6.158;2022-12-05T16:22:50;5.60;99.90
51500;DHT22;39101;53.478;6.158;2022-12-05T16:25:29;5.70;99.90
51500;DHT22;39101;53.478;6.158;2022-12-05T16:28:16;5.60;99.90
51500;DHT22;39101;53.478;6.158;2022-12-05T16:30:59;5.70;99.90
51500;DHT22;39101;53.478;6.158;2022-12-05T16:33:27;5.70;99.90
51500;DHT22;39101;53.478;6.158;2022-12-05T16:35:53;5.60;99.90
51500;DHT22;39101;53.478;6.158;2022-12-05T16:38:22;5.70;99.90
51500;DHT22;39101;53.478;6.158;2022-12-05T16:45:47;5.60;99.90
51500;DHT22;39101;53.478;6.158;2022-12-05T16:48:17;5.70;99.90
51500;DHT22;39101;53.478;6.158;2022-12-05T16:50:44;5.70;99.90
51500;DHT22;39101;53.478;6.158;2022-12-05T16:55:36;5.70;99.90
51500;DHT22;39101;53.478;6.158;2022-12-05T16:58:10;5.70;99.90
51500;DHT22;39101;53.478;6.158;2022-12-05T17:00:38;5.70;99.90
51500;DHT22;39101;53.478;6.158;2022-12-05T17:03:04;5.60;99.90
51500;DHT22;39101;53.478;6.158;2022-12-05T17:05:30;5.70;99.90
51500;DHT22;39101;53.478;6.158;2022-12-05T17:07:55;5.80;99.90
51500;DHT22;39101;53.478;6.158;2022-12-05T17:10:21;5.70;99.90
51500;DHT22;39101;53.478;6.158;2022-12-05T17:12:46;5.70;99.90
51500;DHT22;39101;53.478;6.158;2022-12-05T17:15:16;5.60;99.90
51500;DHT22;39101;53.478;6.158;2022-12-05T17:17:42;5.70;99.90
51500;DHT22;39101;53.478;6.158;2022-12-05T17:20:08;5.80;99.90
51500;DHT22;39101;53.478;6.158;2022-12-05T17:22:34;5.60;99.90
51500;DHT22;39101;53.478;6.158;2022-12-05T17:24:59;5.60;99.90
51500;DHT22;39101;53.478;6.158;2022-12-05T17:27:25;5.60;99.90
51500;DHT22;39101;53.478;6.158;2022-12-05T17:29:51;5.70;99.90
51500;DHT22;39101;53.478;6.158;2022-12-05T17:32:16;5.60;99.90
51500;DHT22;39101;53.478;6.158;2022-12-05T17:34:42;5.60;99.90
51500;DHT22;39101;53.478;6.158;2022-12-05T17:37:07;5.70;99.90
51500;DHT22;39101;53.478;6.158;2022-12-05T17:39:33;5.60;99.90
51500;DHT22;39101;53.478;6.158;2022-12-05T17:41:59;5.70;99.90
51500;DHT22;39101;53.478;6.158;2022-12-05T17:44:24;5.70;99.90
51500;DHT22;39101;53.478;6.158;2022-12-05T17:46:50;5.80;99.90
51500;DHT22;39101;53.478;6.158;2022-12-05T17:49:16;5.80;99.90
51500;DHT22;39101;53.478;6.158;2022-12-05T17:51:42;5.80;99.90
51500;DHT22;39101;53.478;6.158;2022-12-05T17:54:08;5.70;99.90
51500;DHT22;39101;53.478;6.158;2022-12-05T17:56:34;5.70;99.90
51500;DHT22;39101;53.478;6.158;2022-12-05T17:59:00;5.70;99.90
51500;DHT22;39101;53.478;6.158;2022-12-05T18:01:26;5.80;99.90
51500;DHT22;39101;53.478;6.158;2022-12-05T18:03:51;6.00;99.90
51500;DHT22;39101;53.478;6.158;2022-12-05T18:06:17;5.80;99.90
51500;DHT22;39101;53.478;6.158;2022-12-05T18:08:43;6.00;99.90
51500;DHT22;39101;53.478;6.158;2022-12-05T18:11:11;6.00;99.90
51500;DHT22;39101;53.478;6.158;2022-12-05T18:13:37;5.70;99.90
51500;DHT22;39101;53.478;6.158;2022-12-05T18:16:03;5.90;99.90
51500;DHT22;39101;53.478;6.158;2022-12-05T18:18:29;5.80;99.90
51500;DHT22;39101;53.478;6.158;2022-12-05T18:21:09;5.80;99.90
51500;DHT22;39101;53.478;6.158;2022-12-05T18:23:36;5.80;99.90
51500;DHT22;39101;53.478;6.158;2022-12-05T18:26:03;5.80;99.90
51500;DHT22;39101;53.478;6.158;2022-12-05T18:28:29;5.80;99.90
51500;DHT22;39101;53.478;6.158;2022-12-05T18:31:09;5.90;99.90
51500;DHT22;39101;53.478;6.158;2022-12-05T18:33:35;5.80;99.90
51500;DHT22;39101;53.478;6.158;2022-12-05T18:36:12;5.90;99.90
51500;DHT22;39101;53.478;6.158;2022-12-05T18:38:40;5.90;99.90
51500;DHT22;39101;53.478;6.158;2022-12-05T18:41:07;6.10;99.90
51500;DHT22;39101;53.478;6.158;2022-12-05T18:43:32;5.90;99.90
51500;DHT22;39101;53.478;6.158;2022-12-05T18:46:00;5.90;99.90
51500;DHT22;39101;53.478;6.158;2022-12-05T18:48:27;5.90;99.90
51500;DHT22;39101;53.478;6.158;2022-12-05T18:50:53;5.90;99.90
51500;DHT22;39101;53.478;6.158;2022-12-05T18:53:19;6.00;99.90
51500;DHT22;39101;53.478;6.158;2022-12-05T18:55:45;6.00;99.90
51500;DHT22;39101;53.478;6.158;2022-12-05T18:58:10;5.90;99.90
51500;DHT22;39101;53.478;6.158;2022-12-05T19:00:37;6.00;99.90
51500;DHT22;39101;53.478;6.158;2022-12-05T19:03:02;5.90;99.90
51500;DHT22;39101;53.478;6.158;2022-12-05T19:05:29;5.90;99.90